sensor_id;sensor_type;location;lat;lon;timestamp;pressure;altitude;pressure_sealevel;temperature;humidity
57763;BME280;43592;42.524;12.052;2023-04-22T00:00:27;96514.09;;;10.56;100.00
57763;BME280;43592;42.524;12.052;2023-04-22T00:02:53;96511.41;;;10.56;100.00
57763;BME280;43592;42.524;12.052;2023-04-22T00:05:20;96517.88;;;10.55;100.00
57763;BME280;43592;42.524;12.052;2023-04-22T00:07:46;96514.09;;;10.56;100.00
57763;BME280;43592;42.524;12.052;2023-04-22T00:10:11;96515.63;;;10.57;100.00
57763;BME280;43592;42.524;12.052;2023-04-22T00:12:37;96515.19;;;10.55;100.00
57763;BME280;43592;42.524;12.052;2023-04-22T00:15:02;96514.78;;;10.53;100.00
57763;BME280;43592;42.524;12.052;2023-04-22T00:17:28;96518.91;;;10.51;100.00
57763;BME280;43592;42.524;12.052;2023-04-22T00:19:54;96521.91;;;10.49;100.00
57763;BME280;43592;42.524;12.052;2023-04-22T00:22:20;96520.38;;;10.48;100.00
57763;BME280;43592;42.524;12.052;2023-04-22T00:24:46;96519.91;;;10.46;100.00
57763;BME280;43592;42.524;12.052;2023-04-22T00:27:11;96520.28;;;10.45;100.00
57763;BME280;43592;42.524;12.052;2023-04-22T00:29:37;96525.50;;;10.41;100.00
57763;BME280;43592;42.524;12.052;2023-04-22T00:32:02;96518.63;;;10.40;100.00
57763;BME280;43592;42.524;12.052;2023-04-22T00:34:28;96528.19;;;10.41;98.73
57763;BME280;43592;42.524;12.052;2023-04-22T00:36:53;96519.75;;;10.39;99.33
57763;BME280;43592;42.524;12.052;2023-04-22T00:39:19;96523.53;;;10.38;98.85
57763;BME280;43592;42.524;12.052;2023-04-22T00:41:45;96522.28;;;10.36;100.00
57763;BME280;43592;42.524;12.052;2023-04-22T00:44:11;96517.31;;;10.34;97.48
57763;BME280;43592;42.524;12.052;2023-04-22T00:46:37;96520.31;;;10.32;97.34
57763;BME280;43592;42.524;12.052;2023-04-22T00:49:03;96522.66;;;10.34;97.46
57763;BME280;43592;42.524;12.052;2023-04-22T00:51:29;96522.66;;;10.34;98.84
57763;BME280;43592;42.524;12.052;2023-04-22T00:53:55;96519.22;;;10.33;98.38
57763;BME280;43592;42.524;12.052;2023-04-22T00:56:21;96528.69;;;10.31;97.59
57763;BME280;43592;42.524;12.052;2023-04-22T00:58:49;96527.47;;;10.28;98.87
57763;BME280;43592;42.524;12.052;2023-04-22T01:01:14;96534.72;;;10.28;98.60
57763;BME280;43592;42.524;12.052;2023-04-22T01:03:40;96535.38;;;10.25;99.67
57763;BME280;43592;42.524;12.052;2023-04-22T01:06:07;96530.34;;;10.23;100.00
57763;BME280;43592;42.524;12.052;2023-04-22T01:08:32;96534.16;;;10.22;100.00
57763;BME280;43592;42.524;12.052;2023-04-22T01:10:58;96525.00;;;10.23;99.97
57763;BME280;43592;42.524;12.052;2023-04-22T01:13:24;96534.16;;;10.22;100.00
57763;BME280;43592;42.524;12.052;2023-04-22T01:15:50;96522.56;;;10.18;100.00
57763;BME280;43592;42.524;12.052;2023-04-22T01:18:17;96529.25;;;10.12;100.00
57763;BME280;43592;42.524;12.052;2023-04-22T01:20:43;96529.59;;;10.10;100.00
57763;BME280;43592;42.524;12.052;2023-04-22T01:23:42;96520.38;;;10.08;100.00
57763;BME280;43592;42.524;12.052;2023-04-22T01:26:01;96526.41;;;10.05;100.00
57763;BME280;43592;42.524;12.052;2023-04-22T01:28:26;96530.53;;;10.02;100.00
57763;BME280;43592;42.524;12.052;2023-04-22T01:30:52;96519.28;;;9.97;100.00
57763;BME280;43592;42.524;12.052;2023-04-22T01:33:18;96526.75;;;9.91;100.00
57763;BME280;43592;42.524;12.052;2023-04-22T01:35:44;96529.19;;;9.84;100.00
57763;BME280;43592;42.524;12.052;2023-04-22T01:38:10;96522.75;;;9.73;100.00
57763;BME280;43592;42.524;12.052;2023-04-22T01:40:36;96525.75;;;9.59;100.00
57763;BME280;43592;42.524;12.052;2023-04-22T01:43:02;96521.09;;;9.43;100.00
57763;BME280;43592;42.524;12.052;2023-04-22T01:45:27;96526.78;;;9.30;100.00
57763;BME280;43592;42.524;12.052;2023-04-22T01:47:53;96526.78;;;9.17;100.00
57763;BME280;43592;42.524;12.052;2023-04-22T01:50:19;96527.66;;;9.09;100.00
57763;BME280;43592;42.524;12.052;2023-04-22T01:52:44;96525.50;;;9.03;100.00
57763;BME280;43592;42.524;12.052;2023-04-22T01:55:10;96528.41;;;8.97;100.00
57763;BME280;43592;42.524;12.052;2023-04-22T01:57:35;96533.19;;;8.92;100.00
57763;BME280;43592;42.524;12.052;2023-04-22T02:00:01;96536.06;;;8.87;100.00
57763;BME280;43592;42.524;12.052;2023-04-22T02:02:27;96539.81;;;8.86;100.00
57763;BME280;43592;42.524;12.052;2023-04-22T02:04:53;96542.81;;;8.84;100.00
57763;BME280;43592;42.524;12.052;2023-04-22T02:07:18;96540.81;;;8.81;100.00
57763;BME280;43592;42.524;12.052;2023-04-22T02:09:44;96544.16;;;8.78;100.00
57763;BME280;43592;42.524;12.052;2023-04-22T02:12:09;96540.91;;;8.72;100.00
57763;BME280;43592;42.524;12.052;2023-04-22T02:14:35;96541.00;;;8.64;100.00
57763;BME280;43592;42.524;12.052;2023-04-22T02:17:00;96536.81;;;8.54;100.00
57763;BME280;43592;42.524;12.052;2023-04-22T02:19:26;96541.78;;;8.43;100.00
57763;BME280;43592;42.524;12.052;2023-04-22T02:21:52;96544.72;;;8.29;100.00
57763;BME280;43592;42.524;12.052;2023-04-22T02:24:18;96550.72;;;8.18;100.00
57763;BME280;43592;42.524;12.052;2023-04-22T02:26:43;96547.34;;;8.08;100.00
57763;BME280;43592;42.524;12.052;2023-04-22T02:29:09;96548.19;;;8.00;100.00
57763;BME280;43592;42.524;12.052;2023-04-22T02:31:34;96552.94;;;7.95;100.00
57763;BME280;43592;42.524;12.052;2023-04-22T02:34:00;96555.00;;;7.89;100.00
57763;BME280;43592;42.524;12.052;2023-04-22T02:36:25;96552.41;;;7.80;100.00
57763;BME280;43592;42.524;12.052;2023-04-22T02:38:52;96549.47;;;7.73;100.00
57763;BME280;43592;42.524;12.052;2023-04-22T02:41:17;96549.66;;;7.68;100.00
57763;BME280;43592;42.524;12.052;2023-04-22T02:43:43;96557.03;;;7.62;100.00
57763;BME280;43592;42.524;12.052;2023-04-22T02:46:13;96558.47;;;7.60;100.00
57763;BME280;43592;42.524;12.052;2023-04-22T02:48:40;96553.00;;;7.56;100.00
57763;BME280;43592;42.524;12.052;2023-04-22T02:51:05;96559.75;;;7.54;100.00
57763;BME280;43592;42.524;12.052;2023-04-22T02:53:31;96555.50;;;7.53;100.00
57763;BME280;43592;42.524;12.052;2023-04-22T02:55:57;96553.06;;;7.48;100.00
57763;BME280;43592;42.524;12.052;2023-04-22T02:58:22;96548.22;;;7.41;100.00
57763;BME280;43592;42.524;12.052;2023-04-22T03:00:48;96564.34;;;7.36;100.00
57763;BME280;43592;42.524;12.052;2023-04-22T03:03:14;96550.44;;;7.30;100.00
57763;BME280;43592;42.524;12.052;2023-04-22T03:05:39;96548.63;;;7.22;100.00
57763;BME280;43592;42.524;12.052;2023-04-22T03:08:05;96548.31;;;7.15;100.00
57763;BME280;43592;42.524;12.052;2023-04-22T03:10:30;96551.91;;;7.10;100.00
57763;BME280;43592;42.524;12.052;2023-04-22T03:12:56;96540.53;;;7.01;100.00
57763;BME280;43592;42.524;12.052;2023-04-22T03:15:22;96541.81;;;6.95;100.00
57763;BME280;43592;42.524;12.052;2023-04-22T03:17:48;96556.03;;;6.90;100.00
57763;BME280;43592;42.524;12.052;2023-04-22T03:20:14;96538.53;;;6.89;100.00
57763;BME280;43592;42.524;12.052;2023-04-22T03:22:39;96542.09;;;6.93;100.00
57763;BME280;43592;42.524;12.052;2023-04-22T03:25:05;96551.94;;;7.02;100.00
57763;BME280;43592;42.524;12.052;2023-04-22T03:27:31;96547.72;;;7.09;100.00
57763;BME280;43592;42.524;12.052;2023-04-22T03:29:56;96556.78;;;7.17;100.00
57763;BME280;43592;42.524;12.052;2023-04-22T03:32:22;96552.97;;;7.27;100.00
57763;BME280;43592;42.524;12.052;2023-04-22T03:34:47;96556.06;;;7.37;100.00
57763;BME280;43592;42.524;12.052;2023-04-22T03:37:13;96557.56;;;7.47;100.00
57763;BME280;43592;42.524;12.052;2023-04-22T03:39:38;96551.59;;;7.59;100.00
57763;BME280;43592;42.524;12.052;2023-04-22T03:42:04;96539.47;;;7.70;100.00
57763;BME280;43592;42.524;12.052;2023-04-22T03:44:30;96541.88;;;7.84;100.00
57763;BME280;43592;42.524;12.052;2023-04-22T03:46:55;96547.41;;;8.00;100.00
57763;BME280;43592;42.524;12.052;2023-04-22T03:49:21;96539.63;;;8.16;100.00
57763;BME280;43592;42.524;12.052;2023-04-22T03:51:46;96538.13;;;8.27;100.00
57763;BME280;43592;42.524;12.052;2023-04-22T03:54:12;96544.31;;;8.40;100.00
57763;BME280;43592;42.524;12.052;2023-04-22T03:56:37;96548.16;;;8.51;100.00
57763;BME280;43592;42.524;12.052;2023-04-22T03:59:03;96555.41;;;8.63;100.00
57763;BME280;43592;42.524;12.052;2023-04-22T04:01:28;96561.47;;;8.72;100.00
57763;BME280;43592;42.524;12.052;2023-04-22T04:03:54;96546.03;;;8.77;100.00
57763;BME280;43592;42.524;12.052;2023-04-22T04:06:20;96550.81;;;8.84;100.00
57763;BME280;43592;42.524;12.052;2023-04-22T04:08:45;96552.06;;;8.87;100.00
57763;BME280;43592;42.524;12.052;2023-04-22T04:11:11;96546.94;;;8.94;100.00
57763;BME280;43592;42.524;12.052;2023-04-22T04:13:37;96548.28;;;9.00;100.00
57763;BME280;43592;42.524;12.052;2023-04-22T04:16:02;96546.34;;;9.09;100.00
57763;BME280;43592;42.524;12.052;2023-04-22T04:18:28;96549.22;;;9.16;100.00
57763;BME280;43592;42.524;12.052;2023-04-22T04:20:54;96550.56;;;9.22;100.00
57763;BME280;43592;42.524;12.052;2023-04-22T04:23:19;96553.78;;;9.28;100.00
57763;BME280;43592;42.524;12.052;2023-04-22T04:25:45;96544.47;;;9.34;100.00
57763;BME280;43592;42.524;12.052;2023-04-22T04:28:10;96555.25;;;9.38;100.00
57763;BME280;43592;42.524;12.052;2023-04-22T04:30:36;96549.16;;;9.37;100.00
57763;BME280;43592;42.524;12.052;2023-04-22T04:33:02;96556.03;;;9.38;100.00
57763;BME280;43592;42.524;12.052;2023-04-22T04:35:31;96563.38;;;9.41;100.00
57763;BME280;43592;42.524;12.052;2023-04-22T04:37:59;96558.28;;;9.49;100.00
57763;BME280;43592;42.524;12.052;2023-04-22T04:40:24;96566.50;;;9.56;100.00
57763;BME280;43592;42.524;12.052;2023-04-22T04:42:50;96570.97;;;9.64;100.00
57763;BME280;43592;42.524;12.052;2023-04-22T04:45:17;96563.50;;;9.70;100.00
57763;BME280;43592;42.524;12.052;2023-04-22T04:47:43;96570.19;;;9.76;100.00
57763;BME280;43592;42.524;12.052;2023-04-22T04:50:09;96564.16;;;9.79;100.00
57763;BME280;43592;42.524;12.052;2023-04-22T04:52:35;96572.31;;;9.82;100.00
57763;BME280;43592;42.524;12.052;2023-04-22T04:55:00;96568.97;;;9.85;100.00
57763;BME280;43592;42.524;12.052;2023-04-22T04:57:26;96572.50;;;9.89;100.00
57763;BME280;43592;42.524;12.052;2023-04-22T04:59:51;96577.19;;;9.93;100.00
57763;BME280;43592;42.524;12.052;2023-04-22T05:02:17;96571.94;;;9.96;100.00
57763;BME280;43592;42.524;12.052;2023-04-22T05:04:42;96582.00;;;9.99;100.00
57763;BME280;43592;42.524;12.052;2023-04-22T05:07:08;96578.28;;;10.04;100.00
57763;BME280;43592;42.524;12.052;2023-04-22T05:09:33;96588.66;;;10.05;100.00
57763;BME280;43592;42.524;12.052;2023-04-22T05:12:02;96581.75;;;10.04;100.00
57763;BME280;43592;42.524;12.052;2023-04-22T05:14:27;96576.84;;;10.06;100.00
57763;BME280;43592;42.524;12.052;2023-04-22T05:16:53;96586.09;;;10.09;100.00
57763;BME280;43592;42.524;12.052;2023-04-22T05:19:18;96580.16;;;10.16;100.00
57763;BME280;43592;42.524;12.052;2023-04-22T05:21:44;96580.03;;;10.24;100.00
57763;BME280;43592;42.524;12.052;2023-04-22T05:24:09;96580.28;;;10.31;100.00
57763;BME280;43592;42.524;12.052;2023-04-22T05:26:35;96594.66;;;10.39;100.00
57763;BME280;43592;42.524;12.052;2023-04-22T05:29:01;96584.81;;;10.43;100.00
57763;BME280;43592;42.524;12.052;2023-04-22T05:31:26;96591.47;;;10.49;100.00
57763;BME280;43592;42.524;12.052;2023-04-22T05:33:53;96589.78;;;10.57;100.00
57763;BME280;43592;42.524;12.052;2023-04-22T05:36:18;96596.47;;;10.63;100.00
57763;BME280;43592;42.524;12.052;2023-04-22T05:38:44;96598.91;;;10.68;100.00
57763;BME280;43592;42.524;12.052;2023-04-22T05:41:09;96591.72;;;10.72;100.00
57763;BME280;43592;42.524;12.052;2023-04-22T05:43:35;96597.97;;;10.76;100.00
57763;BME280;43592;42.524;12.052;2023-04-22T05:46:01;96603.41;;;10.80;100.00
57763;BME280;43592;42.524;12.052;2023-04-22T05:48:26;96606.19;;;10.84;100.00
57763;BME280;43592;42.524;12.052;2023-04-22T05:50:51;96608.63;;;10.89;100.00
57763;BME280;43592;42.524;12.052;2023-04-22T05:53:18;96609.16;;;10.94;100.00
57763;BME280;43592;42.524;12.052;2023-04-22T05:55:44;96617.72;;;11.00;100.00
57763;BME280;43592;42.524;12.052;2023-04-22T05:58:09;96615.59;;;11.06;100.00
57763;BME280;43592;42.524;12.052;2023-04-22T06:00:35;96615.09;;;11.16;100.00
57763;BME280;43592;42.524;12.052;2023-04-22T06:03:00;96617.69;;;11.28;100.00
57763;BME280;43592;42.524;12.052;2023-04-22T06:05:26;96623.50;;;11.46;100.00
57763;BME280;43592;42.524;12.052;2023-04-22T06:07:52;96620.41;;;11.76;100.00
57763;BME280;43592;42.524;12.052;2023-04-22T06:10:17;96622.91;;;12.51;100.00
57763;BME280;43592;42.524;12.052;2023-04-22T06:12:43;96618.69;;;13.51;100.00
57763;BME280;43592;42.524;12.052;2023-04-22T06:15:08;96622.59;;;14.56;93.23
57763;BME280;43592;42.524;12.052;2023-04-22T06:17:34;96616.72;;;15.52;87.23
57763;BME280;43592;42.524;12.052;2023-04-22T06:20:00;96630.06;;;16.30;82.35
57763;BME280;43592;42.524;12.052;2023-04-22T06:22:25;96628.50;;;16.99;80.78
57763;BME280;43592;42.524;12.052;2023-04-22T06:24:51;96632.53;;;17.55;77.55
57763;BME280;43592;42.524;12.052;2023-04-22T06:27:16;96630.63;;;18.02;75.95
57763;BME280;43592;42.524;12.052;2023-04-22T06:29:42;96642.19;;;18.46;75.50
57763;BME280;43592;42.524;12.052;2023-04-22T06:32:07;96645.56;;;18.89;72.21
57763;BME280;43592;42.524;12.052;2023-04-22T06:34:33;96642.72;;;19.25;72.41
57763;BME280;43592;42.524;12.052;2023-04-22T06:36:58;96642.19;;;19.44;71.96
57763;BME280;43592;42.524;12.052;2023-04-22T06:39:24;96641.28;;;19.69;69.77
57763;BME280;43592;42.524;12.052;2023-04-22T06:41:49;96641.25;;;19.76;66.46
57763;BME280;43592;42.524;12.052;2023-04-22T06:44:15;96651.22;;;19.93;70.28
57763;BME280;43592;42.524;12.052;2023-04-22T06:46:40;96641.69;;;20.19;69.93
57763;BME280;43592;42.524;12.052;2023-04-22T06:49:06;96638.78;;;20.41;67.83
57763;BME280;43592;42.524;12.052;2023-04-22T06:51:31;96638.81;;;20.75;68.40
57763;BME280;43592;42.524;12.052;2023-04-22T06:53:57;96655.06;;;21.13;64.26
57763;BME280;43592;42.524;12.052;2023-04-22T06:56:23;96650.69;;;21.53;64.35
57763;BME280;43592;42.524;12.052;2023-04-22T06:58:48;96653.03;;;21.79;63.81
57763;BME280;43592;42.524;12.052;2023-04-22T07:01:14;96659.31;;;21.99;63.53
57763;BME280;43592;42.524;12.052;2023-04-22T07:03:39;96665.56;;;22.00;59.59
57763;BME280;43592;42.524;12.052;2023-04-22T07:06:05;96667.03;;;22.04;62.03
57763;BME280;43592;42.524;12.052;2023-04-22T07:08:30;96664.88;;;22.42;61.07
57763;BME280;43592;42.524;12.052;2023-04-22T07:10:56;96657.44;;;22.86;58.74
57763;BME280;43592;42.524;12.052;2023-04-22T07:13:22;96665.22;;;23.28;59.18
57763;BME280;43592;42.524;12.052;2023-04-22T07:15:47;96660.25;;;23.59;58.19
57763;BME280;43592;42.524;12.052;2023-04-22T07:18:13;96652.81;;;23.96;56.73
57763;BME280;43592;42.524;12.052;2023-04-22T07:20:38;96650.50;;;23.94;55.60
57763;BME280;43592;42.524;12.052;2023-04-22T07:23:04;96654.44;;;23.93;55.79
57763;BME280;43592;42.524;12.052;2023-04-22T07:25:29;96643.59;;;23.90;55.92
57763;BME280;43592;42.524;12.052;2023-04-22T07:27:55;96652.19;;;23.88;55.66
57763;BME280;43592;42.524;12.052;2023-04-22T07:30:20;96648.84;;;23.81;56.00
57763;BME280;43592;42.524;12.052;2023-04-22T07:32:46;96648.34;;;23.86;55.91
57763;BME280;43592;42.524;12.052;2023-04-22T07:35:11;96644.34;;;24.07;54.66
57763;BME280;43592;42.524;12.052;2023-04-22T07:37:37;96642.63;;;24.29;55.06
57763;BME280;43592;42.524;12.052;2023-04-22T07:40:02;96647.03;;;24.39;54.66
57763;BME280;43592;42.524;12.052;2023-04-22T07:42:28;96650.38;;;24.31;54.79
57763;BME280;43592;42.524;12.052;2023-04-22T07:44:53;96649.22;;;24.15;53.47
57763;BME280;43592;42.524;12.052;2023-04-22T07:47:19;96652.13;;;24.08;54.42
57763;BME280;43592;42.524;12.052;2023-04-22T07:49:45;96650.25;;;24.22;55.18
57763;BME280;43592;42.524;12.052;2023-04-22T07:52:10;96650.75;;;24.49;52.38
57763;BME280;43592;42.524;12.052;2023-04-22T07:54:36;96658.56;;;24.63;51.01
57763;BME280;43592;42.524;12.052;2023-04-22T07:57:01;96653.97;;;24.90;51.35
57763;BME280;43592;42.524;12.052;2023-04-22T07:59:27;96660.28;;;25.16;48.49
57763;BME280;43592;42.524;12.052;2023-04-22T08:01:52;96663.94;;;25.25;50.00
57763;BME280;43592;42.524;12.052;2023-04-22T08:04:20;96662.63;;;25.01;48.41
57763;BME280;43592;42.524;12.052;2023-04-22T08:06:46;96658.38;;;25.00;47.29
57763;BME280;43592;42.524;12.052;2023-04-22T08:09:11;96660.28;;;24.86;48.20
57763;BME280;43592;42.524;12.052;2023-04-22T08:11:37;96657.38;;;24.64;45.90
57763;BME280;43592;42.524;12.052;2023-04-22T08:14:02;96660.47;;;24.50;48.71
57763;BME280;43592;42.524;12.052;2023-04-22T08:16:28;96652.03;;;24.74;49.99
57763;BME280;43592;42.524;12.052;2023-04-22T08:18:53;96655.72;;;24.96;47.48
57763;BME280;43592;42.524;12.052;2023-04-22T08:21:33;96667.06;;;25.11;48.06
57763;BME280;43592;42.524;12.052;2023-04-22T08:24:01;96658.03;;;24.98;47.43
57763;BME280;43592;42.524;12.052;2023-04-22T08:26:27;96657.44;;;25.19;45.59
57763;BME280;43592;42.524;12.052;2023-04-22T08:28:52;96657.69;;;24.96;45.00
57763;BME280;43592;42.524;12.052;2023-04-22T08:31:18;96662.41;;;24.66;46.97
57763;BME280;43592;42.524;12.052;2023-04-22T08:33:44;96653.88;;;24.64;47.68
57763;BME280;43592;42.524;12.052;2023-04-22T08:36:09;96664.19;;;24.73;46.55
57763;BME280;43592;42.524;12.052;2023-04-22T08:38:35;96653.34;;;24.69;46.00
57763;BME280;43592;42.524;12.052;2023-04-22T08:41:01;96655.69;;;24.83;45.58
57763;BME280;43592;42.524;12.052;2023-04-22T08:43:28;96653.31;;;24.98;45.48
57763;BME280;43592;42.524;12.052;2023-04-22T08:45:54;96655.78;;;24.80;45.41
57763;BME280;43592;42.524;12.052;2023-04-22T08:48:20;96647.25;;;24.49;45.83
57763;BME280;43592;42.524;12.052;2023-04-22T08:50:46;96638.84;;;24.39;47.31
57763;BME280;43592;42.524;12.052;2023-04-22T08:53:12;96654.34;;;24.30;46.51
57763;BME280;43592;42.524;12.052;2023-04-22T08:55:38;96650.16;;;24.09;47.17
57763;BME280;43592;42.524;12.052;2023-04-22T08:58:05;96651.78;;;24.06;47.93
57763;BME280;43592;42.524;12.052;2023-04-22T09:00:31;96654.84;;;24.25;47.26
57763;BME280;43592;42.524;12.052;2023-04-22T09:03:00;96650.97;;;24.38;46.89
57763;BME280;43592;42.524;12.052;2023-04-22T09:05:30;96649.97;;;24.16;46.97
57763;BME280;43592;42.524;12.052;2023-04-22T09:07:57;96653.06;;;24.18;46.39
57763;BME280;43592;42.524;12.052;2023-04-22T09:10:22;96658.69;;;24.27;46.56
57763;BME280;43592;42.524;12.052;2023-04-22T09:12:57;96648.78;;;24.17;45.85
57763;BME280;43592;42.524;12.052;2023-04-22T09:15:23;96644.44;;;24.03;47.24
57763;BME280;43592;42.524;12.052;2023-04-22T09:17:50;96658.53;;;24.02;47.64
57763;BME280;43592;42.524;12.052;2023-04-22T09:20:15;96646.84;;;24.01;48.33
57763;BME280;43592;42.524;12.052;2023-04-22T09:22:44;96645.38;;;23.80;47.25
57763;BME280;43592;42.524;12.052;2023-04-22T09:25:23;96645.00;;;23.62;47.44
57763;BME280;43592;42.524;12.052;2023-04-22T09:27:55;96634.44;;;23.44;49.50
57763;BME280;43592;42.524;12.052;2023-04-22T09:30:30;96639.81;;;23.31;48.34
57763;BME280;43592;42.524;12.052;2023-04-22T09:32:57;96646.25;;;23.21;50.30
57763;BME280;43592;42.524;12.052;2023-04-22T09:35:33;96641.78;;;23.30;50.18
57763;BME280;43592;42.524;12.052;2023-04-22T09:38:00;96639.69;;;23.18;49.35
57763;BME280;43592;42.524;12.052;2023-04-22T09:40:26;96632.13;;;23.26;48.63
57763;BME280;43592;42.524;12.052;2023-04-22T09:42:52;96636.59;;;23.36;46.56
57763;BME280;43592;42.524;12.052;2023-04-22T09:47:56;96635.22;;;23.08;46.22
57763;BME280;43592;42.524;12.052;2023-04-22T09:50:24;96633.19;;;23.12;46.85
57763;BME280;43592;42.524;12.052;2023-04-22T09:52:54;96633.44;;;23.18;49.28
57763;BME280;43592;42.524;12.052;2023-04-22T09:55:23;96635.97;;;23.28;46.93
57763;BME280;43592;42.524;12.052;2023-04-22T09:57:50;96635.88;;;23.32;47.60
57763;BME280;43592;42.524;12.052;2023-04-22T10:00:15;96632.16;;;23.42;49.28
57763;BME280;43592;42.524;12.052;2023-04-22T10:02:41;96622.53;;;23.54;49.08
57763;BME280;43592;42.524;12.052;2023-04-22T10:05:07;96637.56;;;23.62;44.99
57763;BME280;43592;42.524;12.052;2023-04-22T10:07:34;96628.06;;;23.87;48.29
57763;BME280;43592;42.524;12.052;2023-04-22T10:10:00;96635.41;;;24.06;48.79
57763;BME280;43592;42.524;12.052;2023-04-22T10:12:26;96644.88;;;24.18;46.86
57763;BME280;43592;42.524;12.052;2023-04-22T10:14:51;96634.44;;;24.13;44.35
57763;BME280;43592;42.524;12.052;2023-04-22T10:20:04;96638.34;;;24.28;47.74
57763;BME280;43592;42.524;12.052;2023-04-22T10:22:32;96622.75;;;23.96;44.91
57763;BME280;43592;42.524;12.052;2023-04-22T10:24:59;96628.47;;;23.85;44.11
57763;BME280;43592;42.524;12.052;2023-04-22T10:27:24;96617.63;;;23.98;46.22
57763;BME280;43592;42.524;12.052;2023-04-22T10:29:50;96626.59;;;23.98;45.09
57763;BME280;43592;42.524;12.052;2023-04-22T10:34:47;96619.16;;;24.61;46.02
57763;BME280;43592;42.524;12.052;2023-04-22T10:37:13;96622.81;;;24.71;47.41
57763;BME280;43592;42.524;12.052;2023-04-22T10:39:39;96616.81;;;24.47;43.14
57763;BME280;43592;42.524;12.052;2023-04-22T10:42:11;96616.06;;;24.30;43.80
57763;BME280;43592;42.524;12.052;2023-04-22T10:44:47;96618.59;;;24.37;48.50
57763;BME280;43592;42.524;12.052;2023-04-22T10:47:29;96616.16;;;24.26;42.85
57763;BME280;43592;42.524;12.052;2023-04-22T10:50:15;96621.66;;;24.55;45.49
57763;BME280;43592;42.524;12.052;2023-04-22T10:52:41;96621.16;;;24.73;44.78
57763;BME280;43592;42.524;12.052;2023-04-22T10:55:07;96626.69;;;24.86;44.85
57763;BME280;43592;42.524;12.052;2023-04-22T10:57:35;96613.47;;;24.97;46.72
57763;BME280;43592;42.524;12.052;2023-04-22T11:00:37;96618.31;;;25.06;43.64
57763;BME280;43592;42.524;12.052;2023-04-22T11:03:15;96619.91;;;25.20;45.11
57763;BME280;43592;42.524;12.052;2023-04-22T11:05:40;96615.53;;;25.35;43.97
57763;BME280;43592;42.524;12.052;2023-04-22T11:08:08;96626.47;;;25.61;43.94
57763;BME280;43592;42.524;12.052;2023-04-22T11:10:40;96616.63;;;25.76;43.97
57763;BME280;43592;42.524;12.052;2023-04-22T11:13:06;96615.41;;;25.90;43.76
57763;BME280;43592;42.524;12.052;2023-04-22T11:15:33;96618.78;;;25.81;41.82
57763;BME280;43592;42.524;12.052;2023-04-22T11:17:59;96610.38;;;25.88;43.71
57763;BME280;43592;42.524;12.052;2023-04-22T11:20:25;96609.28;;;25.86;46.50
57763;BME280;43592;42.524;12.052;2023-04-22T11:22:51;96608.34;;;26.14;45.90
57763;BME280;43592;42.524;12.052;2023-04-22T11:25:16;96608.19;;;26.31;44.53
57763;BME280;43592;42.524;12.052;2023-04-22T11:27:42;96605.00;;;26.32;43.81
57763;BME280;43592;42.524;12.052;2023-04-22T11:32:37;96605.47;;;26.18;40.38
57763;BME280;43592;42.524;12.052;2023-04-22T11:35:04;96602.44;;;26.03;42.63
57763;BME280;43592;42.524;12.052;2023-04-22T11:37:30;96599.63;;;25.94;43.12
57763;BME280;43592;42.524;12.052;2023-04-22T11:39:59;96602.34;;;25.81;42.06
57763;BME280;43592;42.524;12.052;2023-04-22T11:42:25;96595.34;;;25.67;43.10
57763;BME280;43592;42.524;12.052;2023-04-22T11:44:51;96596.00;;;25.71;47.57
57763;BME280;43592;42.524;12.052;2023-04-22T11:47:16;96602.03;;;25.92;45.19
57763;BME280;43592;42.524;12.052;2023-04-22T11:49:56;96600.94;;;26.02;44.72
57763;BME280;43592;42.524;12.052;2023-04-22T11:52:22;96601.91;;;25.95;43.90
57763;BME280;43592;42.524;12.052;2023-04-22T11:54:47;96602.16;;;25.88;41.69
57763;BME280;43592;42.524;12.052;2023-04-22T11:57:13;96593.91;;;25.75;42.54
57763;BME280;43592;42.524;12.052;2023-04-22T11:59:41;96584.06;;;25.65;42.70
57763;BME280;43592;42.524;12.052;2023-04-22T12:02:06;96592.19;;;25.30;40.51
57763;BME280;43592;42.524;12.052;2023-04-22T12:04:36;96599.41;;;25.24;44.34
57763;BME280;43592;42.524;12.052;2023-04-22T12:07:02;96585.41;;;25.22;44.14
57763;BME280;43592;42.524;12.052;2023-04-22T12:09:28;96592.75;;;25.25;45.92
57763;BME280;43592;42.524;12.052;2023-04-22T12:11:53;96591.31;;;25.21;43.10
57763;BME280;43592;42.524;12.052;2023-04-22T12:14:19;96591.00;;;25.31;47.27
57763;BME280;43592;42.524;12.052;2023-04-22T12:16:44;96579.34;;;25.53;47.95
57763;BME280;43592;42.524;12.052;2023-04-22T12:19:10;96584.06;;;25.65;47.60
57763;BME280;43592;42.524;12.052;2023-04-22T12:21:35;96581.97;;;25.95;47.21
57763;BME280;43592;42.524;12.052;2023-04-22T12:24:02;96590.00;;;26.24;48.60
57763;BME280;43592;42.524;12.052;2023-04-22T12:26:31;96577.19;;;26.56;47.41
57763;BME280;43592;42.524;12.052;2023-04-22T12:28:56;96572.13;;;26.76;42.14
57763;BME280;43592;42.524;12.052;2023-04-22T12:31:23;96567.78;;;26.88;44.10
57763;BME280;43592;42.524;12.052;2023-04-22T12:33:48;96569.13;;;26.83;46.05
57763;BME280;43592;42.524;12.052;2023-04-22T12:36:14;96570.63;;;26.75;42.47
57763;BME280;43592;42.524;12.052;2023-04-22T12:38:40;96570.66;;;26.62;45.52
57763;BME280;43592;42.524;12.052;2023-04-22T12:41:09;96564.41;;;26.62;46.84
57763;BME280;43592;42.524;12.052;2023-04-22T12:43:34;96558.75;;;26.22;44.43
57763;BME280;43592;42.524;12.052;2023-04-22T12:46:01;96572.41;;;26.00;50.57
57763;BME280;43592;42.524;12.052;2023-04-22T12:48:26;96564.13;;;25.90;48.51
57763;BME280;43592;42.524;12.052;2023-04-22T12:50:52;96560.50;;;25.68;46.18
57763;BME280;43592;42.524;12.052;2023-04-22T12:53:19;96567.31;;;25.63;48.99